Time,TemperatureF,DewpointF,PressureIn,WindDirection,WindDirectionDegrees,WindSpeedMPH,WindSpeedGustMPH,Humidity,HourlyPrecipIn,Conditions,Clouds,dailyrainin,SoftwareType,DateUTC
2013-06-27 00:09:00,74.3,74.0,29.77,West,270,0.0,0.0,98,0.00,,,0.00,weatherlink.com 1.10,2013-06-27 05:09:00,
2013-06-27 00:24:00,74.0,73.0,29.77,West,270,0.0,0.0,98,0.00,,,0.00,weatherlink.com 1.10,2013-06-27 05:24:00,
2013-06-27 00:39:00,74.0,73.0,29.77,West,270,0.0,0.0,98,0.00,,,0.00,weatherlink.com 1.10,2013-06-27 05:39:00,
2013-06-27 00:54:00,73.9,73.0,29.77,West,270,0.0,0.0,98,0.00,,,0.00,weatherlink.com 1.10,2013-06-27 05:54:00,
2013-06-27 01:09:00,73.6,73.0,29.77,West,270,0.0,0.0,98,0.00,,,0.00,weatherlink.com 1.10,2013-06-27 06:09:00,
2013-06-27 01:24:00,73.5,73.0,29.77,West,270,0.0,1.0,99,0.00,,,0.00,weatherlink.com 1.10,2013-06-27 06:24:00,
2013-06-27 01:39:00,73.3,73.0,29.77,West,270,0.0,0.0,99,0.00,,,0.00,weatherlink.com 1.10,2013-06-27 06:39:00,
2013-06-27 01:54:00,73.5,73.0,29.77,West,270,0.0,1.0,99,0.00,,,0.00,weatherlink.com 1.10,2013-06-27 06:54:00,
2013-06-27 02:09:00,72.9,73.0,29.77,West,270,0.0,0.0,99,0.00,,,0.00,weatherlink.com 1.10,2013-06-27 07:09:00,
2013-06-27 02:24:00,72.8,73.0,29.77,West,270,0.0,0.0,99,0.00,,,0.00,weatherlink.com 1.10,2013-06-27 07:24:00,
2013-06-27 02:39:00,72.5,72.0,29.78,West,270,0.0,0.0,99,0.00,,,0.00,weatherlink.com 1.10,2013-06-27 07:39:00,
2013-06-27 02:54:00,72.3,72.0,29.78,West,270,0.0,0.0,99,0.00,,,0.00,weatherlink.com 1.10,2013-06-27 07:54:00,
2013-06-27 03:09:00,71.9,72.0,29.79,West,270,0.0,0.0,99,0.00,,,0.00,weatherlink.com 1.10,2013-06-27 08:09:00,
2013-06-27 03:25:00,71.7,71.0,29.79,West,270,0.0,0.0,99,0.00,,,0.00,weatherlink.com 1.10,2013-06-27 08:25:00,
2013-06-27 03:40:00,71.7,72.0,29.79,West,269,1.0,1.0,100,0.00,,,0.00,weatherlink.com 1.10,2013-06-27 08:40:00,
2013-06-27 03:55:00,72.0,72.0,29.79,West,262,1.0,1.0,100,0.00,,,0.00,weatherlink.com 1.10,2013-06-27 08:55:00,
2013-06-27 04:10:00,72.6,73.0,29.80,West,262,0.0,1.0,100,0.00,,,0.00,weatherlink.com 1.10,2013-06-27 09:10:00,
2013-06-27 04:25:00,72.3,72.0,29.80,West,271,0.0,1.0,99,0.00,,,0.00,weatherlink.com 1.10,2013-06-27 09:25:00,
2013-06-27 04:40:00,71.8,71.0,29.81,WSW,246,0.0,1.0,98,0.00,,,0.00,weatherlink.com 1.10,2013-06-27 09:40:00,
2013-06-27 04:55:00,71.2,71.0,29.81,WSW,246,0.0,0.0,98,0.00,,,0.00,weatherlink.com 1.10,2013-06-27 09:55:00,
2013-06-27 05:10:00,71.0,71.0,29.82,WSW,245,0.0,1.0,99,0.00,,,0.00,weatherlink.com 1.10,2013-06-27 10:10:00,
2013-06-27 05:25:00,70.5,70.0,29.82,WSW,246,0.0,0.0,98,0.00,,,0.00,weatherlink.com 1.10,2013-06-27 10:25:00,
2013-06-27 05:40:00,70.2,70.0,29.82,WSW,245,0.0,0.0,99,0.00,,,0.00,weatherlink.com 1.10,2013-06-27 10:40:00,
2013-06-27 05:55:00,69.8,70.0,29.82,WSW,245,0.0,0.0,99,0.00,,,0.00,weatherlink.com 1.10,2013-06-27 10:55:00,
2013-06-27 06:10:00,69.8,70.0,29.82,WSW,246,0.0,0.0,99,0.00,,,0.00,weatherlink.com 1.10,2013-06-27 11:10:00,
2013-06-27 06:25:00,70.1,70.0,29.82,WSW,246,0.0,0.0,99,0.00,,,0.00,weatherlink.com 1.10,2013-06-27 11:25:00,
2013-06-27 06:40:00,71.7,72.0,29.82,WSW,246,0.0,1.0,100,0.00,,,0.00,weatherlink.com 1.10,2013-06-27 11:40:00,
2013-06-27 06:55:00,75.8,76.0,29.82,WSW,248,0.0,0.0,99,0.00,,,0.00,weatherlink.com 1.10,2013-06-27 11:55:00,
2013-06-27 07:10:00,76.0,74.0,29.82,NNE,13,0.0,3.0,92,0.00,,,0.00,weatherlink.com 1.10,2013-06-27 12:10:00,
2013-06-27 07:25:00,76.7,73.0,29.82,NW,316,2.0,4.0,87,0.00,,,0.00,weatherlink.com 1.10,2013-06-27 12:25:00,
2013-06-27 07:40:00,77.7,73.0,29.83,North,355,1.0,3.0,86,0.00,,,0.00,weatherlink.com 1.10,2013-06-27 12:40:00,
2013-06-27 07:55:00,78.4,73.0,29.83,NNW,337,4.0,5.0,83,0.00,,,0.00,weatherlink.com 1.10,2013-06-27 12:55:00,
2013-06-27 08:10:00,78.4,73.0,29.84,NNE,26,2.0,9.0,83,0.00,,,0.00,weatherlink.com 1.10,2013-06-27 13:10:00,
2013-06-27 08:25:00,79.0,73.0,29.84,NNE,26,5.0,6.0,82,0.00,,,0.00,weatherlink.com 1.10,2013-06-27 13:25:00,
2013-06-27 08:40:00,79.9,73.0,29.84,NNE,23,4.0,5.0,80,0.00,,,0.00,weatherlink.com 1.10,2013-06-27 13:40:00,
2013-06-27 08:55:00,80.3,73.0,29.85,WNW,302,2.0,8.0,78,0.00,,,0.00,weatherlink.com 1.10,2013-06-27 13:55:00,
2013-06-27 09:10:00,81.1,73.0,29.84,NW,314,2.0,7.0,76,0.00,,,0.00,weatherlink.com 1.10,2013-06-27 14:10:00,
2013-06-27 09:25:00,81.7,74.0,29.84,WNW,300,0.0,5.0,77,0.00,,,0.00,weatherlink.com 1.10,2013-06-27 14:25:00,
2013-06-27 09:40:00,82.5,75.0,29.84,WNW,300,2.0,6.0,77,0.00,,,0.00,weatherlink.com 1.10,2013-06-27 14:40:00,
2013-06-27 09:55:00,83.0,74.0,29.84,WNW,288,0.0,6.0,74,0.00,,,0.00,weatherlink.com 1.10,2013-06-27 14:55:00,
2013-06-27 10:10:00,83.7,74.0,29.84,NNW,330,2.0,6.0,73,0.00,,,0.00,weatherlink.com 1.10,2013-06-27 15:10:00,
2013-06-27 10:25:00,84.3,75.0,29.84,NW,316,4.0,6.0,73,0.00,,,0.00,weatherlink.com 1.10,2013-06-27 15:25:00,
2013-06-27 10:40:00,85.4,75.0,29.84,NNW,337,3.0,5.0,70,0.00,,,0.00,weatherlink.com 1.10,2013-06-27 15:40:00,
2013-06-27 10:55:00,86.1,73.0,29.84,WNW,297,3.0,9.0,66,0.00,,,0.00,weatherlink.com 1.10,2013-06-27 15:55:00,
2013-06-27 11:10:00,86.7,74.0,29.85,WNW,302,3.0,9.0,65,0.00,,,0.00,weatherlink.com 1.10,2013-06-27 16:10:00,
2013-06-27 11:25:00,87.2,74.0,29.85,North,8,4.0,8.0,64,0.00,,,0.00,weatherlink.com 1.10,2013-06-27 16:25:00,
2013-06-27 11:40:00,87.9,74.0,29.85,North,357,2.0,8.0,63,0.00,,,0.00,weatherlink.com 1.10,2013-06-27 16:40:00,
2013-06-27 11:55:00,88.0,71.0,29.85,NW,322,2.0,9.0,58,0.00,,,0.00,weatherlink.com 1.10,2013-06-27 16:55:00,
2013-06-27 12:10:00,88.5,71.0,29.84,SW,229,4.0,7.0,56,0.00,,,0.00,weatherlink.com 1.10,2013-06-27 17:10:00,
2013-06-27 12:25:00,89.1,72.0,29.84,WNW,302,2.0,6.0,57,0.00,,,0.00,weatherlink.com 1.10,2013-06-27 17:25:00,
2013-06-27 12:40:00,89.3,70.0,29.84,NNW,336,2.0,7.0,54,0.00,,,0.00,weatherlink.com 1.10,2013-06-27 17:40:00,
2013-06-27 12:55:00,90.3,71.0,29.84,NNE,16,1.0,6.0,53,0.00,,,0.00,weatherlink.com 1.10,2013-06-27 17:55:00,
2013-06-27 13:10:00,90.9,74.0,29.84,NNW,342,5.0,8.0,58,0.00,,,0.00,weatherlink.com 1.10,2013-06-27 18:10:00,
2013-06-27 13:25:00,90.8,72.0,29.84,WNW,300,1.0,9.0,55,0.00,,,0.00,weatherlink.com 1.10,2013-06-27 18:25:00,
2013-06-27 13:41:00,91.1,72.0,29.85,WNW,292,1.0,6.0,54,0.00,,,0.00,weatherlink.com 1.10,2013-06-27 18:41:00,
2013-06-27 13:56:00,91.7,74.0,29.84,SSW,207,1.0,6.0,57,0.00,,,0.00,weatherlink.com 1.10,2013-06-27 18:56:00,
2013-06-27 14:11:00,91.0,72.0,29.85,WSW,255,1.0,6.0,54,0.00,,,0.00,weatherlink.com 1.10,2013-06-27 19:11:00,
2013-06-27 14:26:00,89.8,73.0,29.85,NNW,328,6.0,7.0,58,0.00,,,0.00,weatherlink.com 1.10,2013-06-27 19:26:00,
2013-06-27 14:41:00,90.0,74.0,29.85,WNW,290,1.0,8.0,59,0.00,,,0.00,weatherlink.com 1.10,2013-06-27 19:41:00,
2013-06-27 14:56:00,89.8,74.0,29.85,NW,319,2.0,7.0,59,0.00,,,0.00,weatherlink.com 1.10,2013-06-27 19:56:00,
2013-06-27 15:11:00,90.4,73.0,29.85,NNW,335,4.0,8.0,56,0.00,,,0.00,weatherlink.com 1.10,2013-06-27 20:11:00,
2013-06-27 15:26:00,89.4,73.0,29.85,NW,319,3.0,7.0,59,0.00,,,0.00,weatherlink.com 1.10,2013-06-27 20:26:00,
2013-06-27 15:41:00,89.1,75.0,29.85,NW,319,3.0,6.0,64,0.00,,,0.00,weatherlink.com 1.10,2013-06-27 20:41:00,
2013-06-27 15:56:00,89.1,73.0,29.84,WNW,302,1.0,11.0,60,0.00,,,0.00,weatherlink.com 1.10,2013-06-27 20:56:00,
2013-06-27 16:11:00,88.7,70.0,29.85,WNW,288,4.0,11.0,55,0.00,,,0.00,weatherlink.com 1.10,2013-06-27 21:11:00,
2013-06-27 16:26:00,88.0,71.0,29.85,NW,319,6.0,11.0,57,0.00,,,0.00,weatherlink.com 1.10,2013-06-27 21:26:00,
2013-06-27 16:41:00,87.2,71.0,29.84,WSW,255,6.0,6.0,58,0.00,,,0.00,weatherlink.com 1.10,2013-06-27 21:41:00,
2013-06-27 16:56:00,86.5,69.0,29.83,NW,309,2.0,7.0,57,0.00,,,0.00,weatherlink.com 1.10,2013-06-27 21:56:00,
2013-06-27 17:11:00,85.7,72.0,29.82,NNW,328,1.0,6.0,63,0.00,,,0.00,weatherlink.com 1.10,2013-06-27 22:11:00,
2013-06-27 17:26:00,84.9,73.0,29.80,NW,324,1.0,1.0,68,0.00,,,0.00,weatherlink.com 1.10,2013-06-27 22:26:00,
2013-06-27 17:41:00,83.8,73.0,29.79,South,170,0.0,2.0,70,0.00,,,0.00,weatherlink.com 1.10,2013-06-27 22:41:00,
2013-06-27 17:56:00,84.3,75.0,29.77,SW,221,0.0,1.0,73,0.00,,,0.00,weatherlink.com 1.10,2013-06-27 22:56:00,
2013-06-27 18:11:00,85.4,74.0,29.79,SW,228,2.0,6.0,69,0.00,,,0.00,weatherlink.com 1.10,2013-06-27 23:11:00,
2013-06-27 18:41:00,86.8,75.0,29.77,WSW,239,0.0,1.0,67,0.00,,,0.00,weatherlink.com 1.10,2013-06-27 23:41:00,
2013-06-27 18:56:00,88.7,74.0,29.76,West,274,0.0,2.0,61,0.00,,,0.00,weatherlink.com 1.10,2013-06-27 23:56:00,
2013-06-27 19:11:00,89.0,75.0,29.75,West,273,0.0,1.0,64,0.00,,,0.00,weatherlink.com 1.10,2013-06-28 00:11:00,
2013-06-27 19:26:00,88.3,75.0,29.74,West,273,0.0,1.0,65,0.00,,,0.00,weatherlink.com 1.10,2013-06-28 00:26:00,
2013-06-27 19:41:00,87.6,74.0,29.74,West,272,0.0,0.0,65,0.00,,,0.00,weatherlink.com 1.10,2013-06-28 00:41:00,
2013-06-27 19:56:00,83.5,74.0,29.74,West,276,0.0,1.0,72,0.00,,,0.00,weatherlink.com 1.10,2013-06-28 00:56:00,
2013-06-27 20:11:00,81.4,73.0,29.75,NW,324,0.0,2.0,76,0.00,,,0.00,weatherlink.com 1.10,2013-06-28 01:11:00,
2013-06-27 20:26:00,80.2,73.0,29.75,NW,316,0.0,0.0,78,0.00,,,0.00,weatherlink.com 1.10,2013-06-28 01:26:00,
2013-06-27 20:41:00,80.2,72.0,29.75,WNW,297,0.0,4.0,77,0.00,,,0.00,weatherlink.com 1.10,2013-06-28 01:41:00,
2013-06-27 20:56:00,79.1,72.0,29.76,West,281,0.0,1.0,78,0.00,,,0.00,weatherlink.com 1.10,2013-06-28 01:56:00,
2013-06-27 21:11:00,78.7,72.0,29.77,WSW,255,0.0,1.0,79,0.00,,,0.00,weatherlink.com 1.10,2013-06-28 02:11:00,
2013-06-27 21:26:00,78.1,72.0,29.77,West,260,0.0,1.0,80,0.00,,,0.00,weatherlink.com 1.10,2013-06-28 02:26:00,
2013-06-27 21:41:00,77.6,71.0,29.78,WSW,255,0.0,1.0,81,0.00,,,0.00,weatherlink.com 1.10,2013-06-28 02:41:00,
2013-06-27 21:56:00,77.1,72.0,29.79,West,281,0.0,1.0,83,0.00,,,0.00,weatherlink.com 1.10,2013-06-28 02:56:00,
2013-06-27 22:12:00,76.2,72.0,29.80,West,281,0.0,1.0,86,0.00,,,0.00,weatherlink.com 1.10,2013-06-28 03:12:00,
2013-06-27 22:27:00,76.2,72.0,29.81,WSW,255,1.0,1.0,87,0.00,,,0.00,weatherlink.com 1.10,2013-06-28 03:27:00,
2013-06-27 22:57:00,77.4,73.0,29.82,WSW,238,0.0,2.0,85,0.00,,,0.00,weatherlink.com 1.10,2013-06-28 03:57:00,
2013-06-27 23:12:00,77.2,72.0,29.82,WSW,238,1.0,3.0,85,0.00,,,0.00,weatherlink.com 1.10,2013-06-28 04:12:00,
2013-06-27 23:27:00,77.0,73.0,29.82,WSW,240,0.0,1.0,86,0.00,,,0.00,weatherlink.com 1.10,2013-06-28 04:27:00,
2013-06-27 23:42:00,76.8,72.0,29.82,West,278,0.0,1.0,85,0.00,,,0.00,weatherlink.com 1.10,2013-06-28 04:42:00,
2013-06-27 23:57:00,76.6,72.0,29.82,West,273,1.0,5.0,86,0.00,,,0.00,weatherlink.com 1.10,2013-06-28 04:57:00,